Airfield :
LOGIN :

Register | Disclaimer

   EN    FR    IT 

 










Legend :    VFR   Marginal VFR   IFR   Intensive IFR   Very Intensive IFR
Visi :
Ceiling :
>= 8 km
>= 3000ft
5 to 8 km
1000 to 3000 ft
1500m to 5 km
500 to 1000 ft
800 to 1500m
200 to 500 ft
< 800m
< 200 ft
Symbols :   Thunderstorms  Fog  Heavy snow  Heavy precipitations  Wind > 20 kt
SIGMETs :     Misc.  Thunderstorms  Icing  Turbulence  Mountain Waves  Volcanic Ashes






- Airport Elevation : 412 ft
- IATA code : ORE


LFOJ - Orleans

CURRENT METAR :
  • 280430Z AUTO 22007KT 6000 OVC003 08/08 Q1011 TEMPO 4000 -RA

EXPIRED METARs :
  • 280400Z AUTO 22008KT 9999 OVC003 08/08 Q1011 TEMPO 4000 -RA
  • 280330Z AUTO 22007KT 9000 OVC004 08/08 Q1011 TEMPO 4000 -RA
  • 280300Z AUTO 21007KT 9999 OVC004 08/08 Q1011 TEMPO 4000 -RA
  • 280230Z AUTO 20006KT 9999 -RA OVC004/// ///TCU 08/08 Q1011 TEMPO 4000 -RA BKN004
  • 272200Z AUTO 19015KT 9000 RA //////CB 08/07 Q1012 TEMPO 4000 -RA BKN004
  • 280200Z AUTO 21008KT 8000 -RA OVC005/// ///TCU 08/08 Q1012 TEMPO 4000 -RA BKN004
  • 272230Z AUTO 22010KT 9999 -RA //////CB 08/08 Q1012 TEMPO 4000 -RA BKN004

TAF TAF LFOJ
Valid from the 28 at 03:00 until the 29 at 03:00 UTC


280200Z 2803/2903 21005KT 9999 BKN008 BKN012 TX12/2815Z TN07/2805Z
TEMPO 2803/2807 4000 -RA SCT002 OVC004
BECMG 2809/2811 BKN004 BKN008
BECMG 2811/2813 SCT020
PROB40
TEMPO 2814/2818 4000 -SHRA SCT015TCU
BECMG 2822/2824 4000 BR BKN004
BECMG 2900/2902 0400 FG VV///



MET'MAP, your aeronautical weather chart ! - Copyright ORBIFLY December 2007 - Disclaimer

ORBIFLY MET'MAP TEAM :

Programming & Development : Alexandra Zaïnal
Original concept : Baudouin d'Aumeries
Technical & hardware support : Manuel Goepfert
Assistance : Marc-Olivier Méhu




SOURCES & CREDITS :

   NOAA